Time;durP1;ratioP1;P1;durP2;ratioP2;P2;SDS_P1;SDS_P2;PMS_P1;PMS_P2;Temp;Humidity;BMP_temperature;BMP_pressure;BME280_temperature;BME280_humidity;BME280_pressure;Samples;Min_cycle;Max_cycle;Signal;HPM_P1;HPM_P2
2022/11/02 00:01:27;;;;;;;13.90;3.33;;;13.90;99.90;;;;;;5112451;28;20165;-52
2022/11/02 00:03:53;;;;;;;12.75;3.63;;;13.80;99.90;;;;;;5112361;28;20184;-52
2022/11/02 00:06:18;;;;;;;14.60;3.30;;;13.90;99.90;;;;;;5112851;28;20165;-51
2022/11/02 00:08:44;;;;;;;8.25;3.17;;;13.80;99.90;;;;;;5112625;28;20620;-50
2022/11/02 00:11:10;;;;;;;12.20;3.75;;;13.90;99.90;;;;;;5112306;28;20165;-51
2022/11/02 00:13:36;;;;;;;9.57;3.95;;;13.90;99.90;;;;;;5112313;28;20173;-51
2022/11/02 00:16:05;;;;;;;13.98;4.32;;;13.90;99.90;;;;;;5112192;28;20605;-51
2022/11/02 00:18:33;;;;;;;12.60;3.30;;;13.80;99.90;;;;;;5112227;28;20575;-51
2022/11/02 00:21:00;;;;;;;7.53;3.25;;;13.80;99.90;;;;;;5112482;28;20528;-51
2022/11/02 00:23:26;;;;;;;15.63;3.28;;;13.90;99.90;;;;;;5111866;28;20623;-50
2022/11/02 00:25:53;;;;;;;13.50;3.13;;;13.80;99.90;;;;;;5112218;28;20168;-48
2022/11/02 00:28:19;;;;;;;11.98;3.40;;;13.80;99.90;;;;;;5112431;28;20165;-51
2022/11/02 00:30:44;;;;;;;16.10;3.45;;;13.90;99.90;;;;;;5093890;28;20753;-52
2022/11/02 00:33:10;;;;;;;7.75;2.45;;;13.90;99.90;;;;;;5112326;28;20689;-52
2022/11/02 00:35:36;;;;;;;13.95;3.75;;;14.00;99.90;;;;;;5111996;28;20169;-52
2022/11/02 00:38:02;;;;;;;11.05;2.72;;;14.00;99.90;;;;;;5111754;28;20169;-50
2022/11/02 00:40:27;;;;;;;6.30;2.47;;;13.90;99.90;;;;;;5111947;28;20637;-49
2022/11/02 00:42:56;;;;;;;9.07;2.53;;;13.90;99.90;;;;;;5112142;28;20237;-51
2022/11/02 00:45:22;;;;;;;8.93;1.95;;;13.90;99.90;;;;;;5112179;28;20168;-49
2022/11/02 00:47:48;;;;;;;9.15;2.17;;;13.80;99.90;;;;;;5112305;28;20233;-51
2022/11/02 00:50:14;;;;;;;5.40;1.75;;;13.80;99.90;;;;;;5111902;28;20164;-51
2022/11/02 00:52:41;;;;;;;9.98;1.52;;;13.80;99.90;;;;;;5111611;28;20171;-49
2022/11/02 00:55:08;;;;;;;7.40;2.10;;;13.80;99.90;;;;;;5112073;28;20177;-49
2022/11/02 00:57:34;;;;;;;5.10;1.60;;;13.80;99.90;;;;;;5111715;28;20679;-49
2022/11/02 00:59:59;;;;;;;5.65;1.80;;;13.70;99.90;;;;;;5111834;28;20619;-50
2022/11/02 01:02:25;;;;;;;10.18;2.25;;;13.70;99.90;;;;;;5111591;28;20259;-49
2022/11/02 01:04:51;;;;;;;6.05;2.08;;;13.70;99.90;;;;;;5111777;28;20225;-50
2022/11/02 01:07:16;;;;;;;11.13;1.73;;;13.70;99.90;;;;;;5111775;28;20169;-49
2022/11/02 01:09:42;;;;;;;10.63;2.28;;;13.70;99.90;;;;;;5111714;28;20333;-49
2022/11/02 01:12:09;;;;;;;10.15;2.28;;;13.70;99.90;;;;;;5111627;28;20727;-50
2022/11/02 01:14:35;;;;;;;6.10;1.98;;;13.70;99.90;;;;;;5111619;28;20248;-50
2022/11/02 01:17:00;;;;;;;4.95;1.17;;;13.70;99.90;;;;;;5114829;28;20566;-49
2022/11/02 01:19:26;;;;;;;6.63;1.50;;;13.70;99.90;;;;;;5115574;28;20256;-50
2022/11/02 01:21:52;;;;;;;6.70;1.77;;;13.70;99.90;;;;;;5115326;28;20176;-49
2022/11/02 01:24:17;;;;;;;6.53;1.95;;;13.70;99.90;;;;;;5115961;28;20161;-49
2022/11/02 01:26:43;;;;;;;9.10;2.05;;;13.70;99.90;;;;;;5115668;28;20263;-50
2022/11/02 01:29:09;;;;;;;6.25;2.58;;;13.70;99.90;;;;;;5115466;28;20176;-50
2022/11/02 01:31:34;;;;;;;14.18;2.45;;;13.70;99.90;;;;;;5115405;28;20172;-50
2022/11/02 01:34:00;;;;;;;11.73;3.03;;;13.60;99.90;;;;;;5115403;28;20240;-50
2022/11/02 01:36:25;;;;;;;10.65;2.63;;;13.60;99.90;;;;;;5115019;28;20196;-49
2022/11/02 01:38:53;;;;;;;7.15;2.08;;;13.60;99.90;;;;;;5115560;28;20208;-49
2022/11/02 01:41:19;;;;;;;6.50;1.63;;;13.60;99.90;;;;;;5115857;28;20172;-49
2022/11/02 01:43:48;;;;;;;7.38;2.58;;;13.70;99.90;;;;;;5115129;28;20168;-49
2022/11/02 01:46:23;;;;;;;9.77;2.65;;;13.70;99.90;;;;;;5115141;28;20635;-50
2022/11/02 01:49:02;;;;;;;13.82;3.05;;;13.70;99.90;;;;;;5115401;28;20180;-49
2022/11/02 01:51:32;;;;;;;12.77;3.20;;;13.60;99.90;;;;;;5115139;28;20220;-49
2022/11/02 01:54:03;;;;;;;6.72;2.60;;;13.60;99.90;;;;;;5114972;28;20180;-50
2022/11/02 01:56:32;;;;;;;9.23;2.60;;;13.60;99.90;;;;;;5114714;28;20227;-50
2022/11/02 01:59:02;;;;;;;9.63;1.95;;;13.60;99.90;;;;;;5115242;28;20153;-50
2022/11/02 02:01:29;;;;;;;10.60;2.17;;;13.60;99.90;;;;;;5114930;28;20169;-50
2022/11/02 02:03:56;;;;;;;7.68;2.28;;;13.60;99.90;;;;;;5114988;28;20286;-50
2022/11/02 02:06:21;;;;;;;13.60;2.45;;;13.60;99.90;;;;;;5115073;28;20628;-50
2022/11/02 02:08:49;;;;;;;6.93;2.20;;;13.60;99.90;;;;;;5115550;28;20217;-50
2022/11/02 02:11:31;;;;;;;10.93;2.20;;;13.50;99.90;;;;;;5114913;28;20179;-52
2022/11/02 02:14:09;;;;;;;10.20;2.50;;;13.50;99.90;;;;;;5114822;28;20257;-50
2022/11/02 02:16:53;;;;;;;7.25;2.15;;;13.50;99.90;;;;;;5114996;28;20232;-50
2022/11/02 02:19:37;;;;;;;5.07;1.70;;;13.50;99.90;;;;;;5115131;28;20164;-51
2022/11/02 02:22:21;;;;;;;5.22;2.25;;;13.50;99.90;;;;;;5114926;28;20172;-50
2022/11/02 02:24:54;;;;;;;7.82;2.35;;;13.60;99.90;;;;;;5114889;28;20179;-52
2022/11/02 02:27:30;;;;;;;10.98;3.33;;;13.50;99.90;;;;;;5113535;28;20527;-49
2022/11/02 02:30:08;;;;;;;12.43;3.22;;;13.40;99.90;;;;;;5114703;28;20156;-51
2022/11/02 02:32:58;;;;;;;6.95;2.30;;;13.40;99.90;;;;;;5114742;28;20169;-52
2022/11/02 02:35:42;;;;;;;15.35;2.95;;;13.30;99.90;;;;;;5114523;28;20168;-52
2022/11/02 02:38:13;;;;;;;5.72;2.05;;;13.30;99.90;;;;;;5114360;28;20176;-51
2022/11/02 02:41:28;;;;;;;9.43;2.80;;;13.30;99.90;;;;;;5114324;28;20161;-51
2022/11/02 02:43:56;;;;;;;11.23;1.90;;;13.30;99.90;;;;;;5079026;28;20741;-50
2022/11/02 02:46:44;;;;;;;8.55;2.53;;;13.30;99.90;;;;;;5114174;28;20632;-49
2022/11/02 02:49:16;;;;;;;3.58;1.63;;;13.30;99.90;;;;;;5114148;28;20170;-50
2022/11/02 02:51:44;;;;;;;6.68;2.17;;;13.20;99.90;;;;;;5114054;28;20547;-50
2022/11/02 02:54:17;;;;;;;5.05;2.10;;;13.20;99.90;;;;;;5114046;28;20188;-50
2022/11/02 02:56:49;;;;;;;6.63;1.73;;;13.20;99.90;;;;;;5113922;28;20232;-50
2022/11/02 02:59:30;;;;;;;6.68;1.90;;;13.10;99.90;;;;;;5113933;28;20172;-51
2022/11/02 03:01:57;;;;;;;8.90;1.75;;;13.20;99.90;;;;;;5114220;28;20663;-51
2022/11/02 03:04:22;;;;;;;4.82;1.67;;;13.30;99.90;;;;;;5113841;28;20169;-50
2022/11/02 03:06:52;;;;;;;8.27;2.22;;;13.30;99.90;;;;;;5114038;28;20247;-50
2022/11/02 03:09:31;;;;;;;5.30;1.50;;;13.30;99.90;;;;;;5114204;28;20165;-52
2022/11/02 03:12:02;;;;;;;11.68;2.08;;;13.40;99.90;;;;;;5113689;28;20517;-52
2022/11/02 03:14:43;;;;;;;9.13;2.33;;;13.40;99.90;;;;;;5113650;28;20163;-51
2022/11/02 03:17:27;;;;;;;6.88;1.83;;;13.40;99.90;;;;;;5113684;28;20257;-51
2022/11/02 03:20:22;;;;;;;9.60;2.55;;;13.40;99.90;;;;;;5113600;28;20171;-51
2022/11/02 03:22:59;;;;;;;4.65;1.52;;;13.40;99.90;;;;;;5113680;28;20251;-50
2022/11/02 03:25:53;;;;;;;13.52;2.40;;;13.40;99.90;;;;;;5113398;28;20165;-50
2022/11/02 03:28:51;;;;;;;4.80;2.00;;;13.40;99.90;;;;;;5077469;28;20180;-49
2022/11/02 03:31:30;;;;;;;6.90;1.58;;;13.40;99.90;;;;;;5113866;28;20635;-51
2022/11/02 03:34:10;;;;;;;7.53;1.90;;;13.50;99.90;;;;;;5113295;28;20160;-51
2022/11/02 03:36:42;;;;;;;5.38;1.75;;;13.40;99.90;;;;;;5113168;28;20204;-52
2022/11/02 03:39:12;;;;;;;8.40;1.55;;;13.40;99.90;;;;;;5112970;28;20531;-51
2022/11/02 03:41:42;;;;;;;6.03;1.90;;;13.40;99.90;;;;;;5113109;28;20173;-49
2022/11/02 03:44:12;;;;;;;6.13;1.92;;;13.40;99.90;;;;;;5113130;28;20247;-49
2022/11/02 03:46:40;;;;;;;6.47;1.27;;;13.40;99.90;;;;;;5113028;28;20160;-50
2022/11/02 03:49:09;;;;;;;6.03;1.70;;;13.40;99.90;;;;;;5113078;28;20169;-49
2022/11/02 03:51:38;;;;;;;8.10;2.25;;;13.30;99.90;;;;;;5112907;28;20256;-50
2022/11/02 03:54:26;;;;;;;6.45;2.20;;;13.20;99.90;;;;;;5112957;28;20165;-50
2022/11/02 03:56:55;;;;;;;8.23;2.05;;;13.20;99.90;;;;;;5112741;28;20213;-49
2022/11/02 03:59:21;;;;;;;9.32;2.00;;;13.10;99.90;;;;;;5112798;28;20172;-51
2022/11/02 04:01:50;;;;;;;9.88;2.00;;;13.10;99.90;;;;;;5112861;28;20216;-51
2022/11/02 04:04:16;;;;;;;4.03;2.03;;;13.10;99.90;;;;;;5112936;28;20172;-51
2022/11/02 04:06:43;;;;;;;13.52;2.35;;;13.10;99.90;;;;;;5112717;28;20157;-50
2022/11/02 04:09:10;;;;;;;8.48;2.10;;;13.10;99.90;;;;;;5112644;28;20161;-49
2022/11/02 04:14:38;;;;;;;9.05;2.20;;;13.10;99.90;;;;;;5112924;28;20531;-50
2022/11/02 04:19:56;;;;;;;3.85;1.33;;;13.20;99.90;;;;;;5112572;28;20270;-50
2022/11/02 04:25:14;;;;;;;5.18;1.83;;;13.10;99.90;;;;;;5112651;28;20179;-49
2022/11/02 04:27:40;;;;;;;7.50;1.80;;;13.10;99.90;;;;;;5112306;28;20585;-51
2022/11/02 04:30:07;;;;;;;7.07;2.70;;;13.00;99.90;;;;;;5111965;28;20172;-52
2022/11/02 04:35:24;;;;;;;5.28;1.90;;;12.90;99.90;;;;;;5112620;28;20172;-50
2022/11/02 04:40:34;;;;;;;7.57;1.73;;;12.80;99.90;;;;;;5112289;28;20172;-51
2022/11/02 04:42:59;;;;;;;5.57;1.60;;;12.80;99.90;;;;;;5112171;28;20527;-50
2022/11/02 04:45:25;;;;;;;4.43;1.77;;;12.80;99.90;;;;;;5112177;28;20176;-50
2022/11/02 04:47:50;;;;;;;5.78;1.73;;;12.70;99.90;;;;;;5112231;28;20165;-50
2022/11/02 04:50:16;;;;;;;4.30;2.47;;;12.70;99.90;;;;;;5113103;28;20172;-50
2022/11/02 04:52:42;;;;;;;5.75;1.75;;;12.70;99.90;;;;;;5116296;28;20164;-50
2022/11/02 04:55:07;;;;;;;6.38;2.10;;;12.70;99.90;;;;;;5116374;28;20177;-49
2022/11/02 04:57:33;;;;;;;10.20;1.63;;;12.70;99.90;;;;;;5116201;28;20208;-50
2022/11/02 04:59:58;;;;;;;6.00;2.38;;;12.60;99.90;;;;;;5116239;28;20165;-50
2022/11/02 05:02:24;;;;;;;5.82;1.60;;;12.70;99.90;;;;;;5116243;28;20220;-50
2022/11/02 05:04:49;;;;;;;8.15;2.40;;;12.60;99.90;;;;;;5116432;28;20165;-50
2022/11/02 05:07:15;;;;;;;7.00;1.95;;;12.60;99.90;;;;;;5116011;28;20582;-49
2022/11/02 05:09:43;;;;;;;7.32;2.38;;;12.60;99.90;;;;;;5116093;28;20164;-51
2022/11/02 05:12:09;;;;;;;6.20;1.60;;;12.60;99.90;;;;;;5115892;28;20165;-50
2022/11/02 05:14:34;;;;;;;6.20;2.35;;;12.60;99.90;;;;;;5115984;28;20179;-50
2022/11/02 05:17:00;;;;;;;7.20;1.80;;;12.60;99.90;;;;;;5115844;28;20679;-52
2022/11/02 05:19:26;;;;;;;5.97;1.90;;;12.50;99.90;;;;;;5097674;28;20197;-49
2022/11/02 05:21:51;;;;;;;7.88;1.92;;;12.50;99.90;;;;;;5115557;28;20176;-50
2022/11/02 05:24:17;;;;;;;7.85;1.77;;;12.50;99.90;;;;;;5115859;28;20209;-52
2022/11/02 05:26:42;;;;;;;6.60;1.77;;;12.50;99.90;;;;;;5115737;28;20773;-50
2022/11/02 05:29:08;;;;;;;4.38;1.50;;;12.50;99.90;;;;;;5115692;28;20530;-51
2022/11/02 05:31:34;;;;;;;8.13;1.80;;;12.50;99.90;;;;;;5115695;28;20161;-51
2022/11/02 05:33:59;;;;;;;9.80;2.05;;;12.50;99.90;;;;;;5115580;28;20175;-51
2022/11/02 05:36:25;;;;;;;9.75;2.40;;;12.40;99.90;;;;;;5115565;28;20229;-50
2022/11/02 05:38:54;;;;;;;10.73;2.13;;;12.40;99.90;;;;;;5115076;28;20633;-50
2022/11/02 05:41:20;;;;;;;13.32;2.22;;;12.40;99.90;;;;;;5115604;28;20221;-50
2022/11/02 05:43:46;;;;;;;8.50;1.42;;;12.40;99.90;;;;;;5115915;28;20179;-50
2022/11/02 05:46:14;;;;;;;7.80;2.00;;;12.50;99.90;;;;;;5115338;28;20161;-51
2022/11/02 05:48:40;;;;;;;8.10;2.45;;;12.50;99.90;;;;;;5115568;28;20521;-51
2022/11/02 05:51:06;;;;;;;5.40;2.17;;;12.40;99.90;;;;;;5115257;28;20261;-50
2022/11/02 05:53:36;;;;;;;6.53;1.63;;;12.40;99.90;;;;;;5115197;28;20161;-52
2022/11/02 05:56:04;;;;;;;6.38;1.80;;;12.40;99.90;;;;;;5114967;28;20189;-52
2022/11/02 05:58:30;;;;;;;5.40;1.33;;;12.40;99.90;;;;;;5115212;28;20526;-51
2022/11/02 06:01:00;;;;;;;8.10;1.85;;;12.40;99.90;;;;;;5115103;28;20169;-50
2022/11/02 06:03:26;;;;;;;4.50;1.73;;;12.40;99.90;;;;;;5114590;28;20713;-50
2022/11/02 06:06:02;;;;;;;10.93;1.83;;;12.40;99.90;;;;;;5114738;28;20200;-50
2022/11/02 06:08:31;;;;;;;4.22;2.03;;;12.40;99.90;;;;;;5114327;28;20189;-50
2022/11/02 06:10:57;;;;;;;8.82;2.60;;;12.40;99.90;;;;;;5114913;28;20169;-50
2022/11/02 06:13:22;;;;;;;13.57;1.92;;;12.40;99.90;;;;;;5114475;28;20176;-51
2022/11/02 06:15:48;;;;;;;10.40;2.55;;;12.40;99.90;;;;;;5115138;28;20496;-50
2022/11/02 06:18:13;;;;;;;8.95;2.35;;;12.40;99.90;;;;;;5114676;28;20202;-50
2022/11/02 06:20:39;;;;;;;7.93;1.73;;;12.40;99.90;;;;;;5114121;28;20166;-49
2022/11/02 06:23:04;;;;;;;10.93;2.20;;;12.40;99.90;;;;;;5114177;28;20200;-49
2022/11/02 06:25:30;;;;;;;8.13;2.15;;;12.40;99.90;;;;;;5095287;28;20156;-50
2022/11/02 06:27:56;;;;;;;10.80;2.75;;;12.30;99.90;;;;;;5113336;28;20168;-49
2022/11/02 06:30:23;;;;;;;8.65;2.03;;;12.30;99.90;;;;;;5113841;28;20167;-49
2022/11/02 06:32:50;;;;;;;7.93;2.08;;;12.30;99.90;;;;;;5114099;28;20161;-50
2022/11/02 06:35:17;;;;;;;8.52;1.88;;;12.20;99.90;;;;;;5113961;28;20251;-49
2022/11/02 06:37:43;;;;;;;6.45;2.47;;;12.20;99.90;;;;;;5113700;28;20671;-49
2022/11/02 06:40:10;;;;;;;9.25;1.50;;;12.20;99.90;;;;;;5114343;28;20365;-50
2022/11/02 06:42:36;;;;;;;7.53;1.67;;;12.20;99.90;;;;;;5114040;28;20172;-51
2022/11/02 06:45:02;;;;;;;7.45;1.35;;;12.20;99.90;;;;;;5114735;28;20542;-50
2022/11/02 06:47:37;;;;;;;6.57;1.60;;;12.20;99.90;;;;;;5114157;28;20164;-51
2022/11/02 06:50:04;;;;;;;9.50;2.83;;;12.20;99.90;;;;;;5114352;28;20221;-51
2022/11/02 06:52:30;;;;;;;8.85;1.95;;;12.20;99.90;;;;;;5114071;28;20168;-49
2022/11/02 06:54:55;;;;;;;5.93;1.85;;;12.10;99.90;;;;;;5113939;28;20526;-49
2022/11/02 06:57:22;;;;;;;9.40;2.40;;;12.20;99.90;;;;;;5113875;28;20271;-48
2022/11/02 06:59:48;;;;;;;6.57;3.42;;;12.20;99.90;;;;;;5114479;28;20172;-50
2022/11/02 07:02:13;;;;;;;7.95;2.25;;;12.20;99.90;;;;;;5113866;28;20216;-49
2022/11/02 07:04:39;;;;;;;7.18;1.85;;;12.10;99.90;;;;;;5095543;28;20203;-50
2022/11/02 07:07:04;;;;;;;5.50;1.70;;;12.10;99.90;;;;;;5113790;28;20657;-51
2022/11/02 07:09:30;;;;;;;7.38;1.90;;;12.10;99.90;;;;;;5113723;28;20527;-50
2022/11/02 07:11:55;;;;;;;8.73;2.45;;;12.20;99.90;;;;;;5113611;28;20175;-49
2022/11/02 07:14:21;;;;;;;11.98;2.53;;;12.10;99.90;;;;;;5112828;28;20165;-49
2022/11/02 07:16:46;;;;;;;9.90;2.17;;;12.20;99.90;;;;;;5114003;28;20207;-49
2022/11/02 07:19:12;;;;;;;8.80;2.30;;;12.20;99.90;;;;;;5113482;28;20203;-49
2022/11/02 07:21:37;;;;;;;6.95;1.50;;;12.20;99.90;;;;;;5113660;28;20182;-49
2022/11/02 07:24:03;;;;;;;10.13;1.80;;;12.20;99.90;;;;;;5113404;28;20164;-50
2022/11/02 07:26:29;;;;;;;8.18;2.45;;;12.20;99.90;;;;;;5113403;28;20268;-50
2022/11/02 07:28:55;;;;;;;7.60;2.00;;;12.20;99.90;;;;;;5113682;28;20294;-50
2022/11/02 07:31:20;;;;;;;8.55;1.92;;;12.20;99.90;;;;;;5113350;28;20230;-53
2022/11/02 07:33:46;;;;;;;12.15;3.22;;;12.30;99.90;;;;;;5113589;28;20180;-53
2022/11/02 07:36:12;;;;;;;7.80;2.38;;;12.30;99.90;;;;;;5113211;28;20277;-53
2022/11/02 07:38:37;;;;;;;11.73;2.50;;;12.40;99.90;;;;;;5113356;28;20184;-54
2022/11/02 07:41:03;;;;;;;6.43;2.22;;;12.40;99.90;;;;;;5113338;28;20715;-53
2022/11/02 07:43:29;;;;;;;11.55;2.30;;;12.50;99.90;;;;;;5113331;28;20247;-53
2022/11/02 07:45:55;;;;;;;5.10;1.77;;;12.50;99.90;;;;;;5113142;28;20259;-51
2022/11/02 07:48:20;;;;;;;9.63;1.73;;;12.60;99.90;;;;;;5112844;28;20243;-51
2022/11/02 07:50:46;;;;;;;5.40;1.88;;;12.70;99.90;;;;;;5113235;28;20642;-51
2022/11/02 07:53:11;;;;;;;10.40;1.95;;;12.70;99.90;;;;;;5112927;28;20628;-54
2022/11/02 07:55:38;;;;;;;11.45;2.47;;;12.80;99.90;;;;;;5112841;28;20164;-53
2022/11/02 07:58:08;;;;;;;7.18;2.00;;;12.90;99.90;;;;;;5112705;28;20291;-53
2022/11/02 08:00:39;;;;;;;10.15;1.80;;;13.00;99.90;;;;;;5112872;28;20528;-53
2022/11/02 08:03:06;;;;;;;8.82;2.65;;;13.00;99.90;;;;;;5112648;28;20220;-53
2022/11/02 08:05:34;;;;;;;15.70;3.10;;;13.00;99.90;;;;;;5112607;28;20214;-53
2022/11/02 08:08:07;;;;;;;7.82;1.80;;;13.00;99.90;;;;;;5094367;28;20631;-53
2022/11/02 08:10:34;;;;;;;7.07;2.50;;;13.00;99.90;;;;;;5112839;28;20226;-53
2022/11/02 08:12:59;;;;;;;14.02;2.95;;;13.10;99.90;;;;;;5112493;28;20164;-54
2022/11/02 08:15:25;;;;;;;9.02;2.40;;;13.10;99.90;;;;;;5112533;28;20176;-53
2022/11/02 08:18:02;;;;;;;10.07;2.20;;;13.10;99.90;;;;;;5112387;28;20204;-53
2022/11/02 08:20:28;;;;;;;8.50;2.42;;;13.10;99.90;;;;;;5112757;28;20179;-53
2022/11/02 08:22:54;;;;;;;8.40;2.40;;;13.10;99.90;;;;;;5112466;28;20165;-53
2022/11/02 08:25:20;;;;;;;4.75;1.98;;;13.10;99.90;;;;;;5112428;28;20636;-54
2022/11/02 08:27:45;;;;;;;6.35;2.13;;;13.10;99.90;;;;;;5112471;28;20249;-53
2022/11/02 08:30:11;;;;;;;9.95;2.20;;;13.10;99.90;;;;;;5107465;28;20180;-53
2022/11/02 08:32:36;;;;;;;10.15;2.55;;;13.10;99.90;;;;;;5090879;28;20620;-48
2022/11/02 08:35:03;;;;;;;7.63;2.65;;;13.10;99.90;;;;;;5090439;28;20169;-51
2022/11/02 08:37:29;;;;;;;18.55;2.42;;;13.20;99.90;;;;;;5090619;28;20262;-52
2022/11/02 08:39:54;;;;;;;10.43;2.33;;;13.30;99.90;;;;;;5090353;28;20166;-53
2022/11/02 08:42:20;;;;;;;6.75;2.53;;;13.40;99.90;;;;;;5090342;28;20176;-52
2022/11/02 08:44:45;;;;;;;6.20;2.10;;;13.40;99.90;;;;;;5090708;28;20529;-52
2022/11/02 08:47:11;;;;;;;7.82;2.28;;;13.30;99.90;;;;;;5090218;28;20234;-52
2022/11/02 08:49:36;;;;;;;8.80;2.10;;;13.40;99.90;;;;;;5090505;28;20526;-52
2022/11/02 08:52:02;;;;;;;5.60;2.30;;;13.30;99.90;;;;;;5090197;28;20182;-49
2022/11/02 08:54:27;;;;;;;8.25;2.30;;;13.40;99.90;;;;;;5090168;28;20256;-49
2022/11/02 08:56:53;;;;;;;8.55;1.90;;;13.40;99.90;;;;;;5090152;28;20212;-50
2022/11/02 08:59:18;;;;;;;10.50;1.92;;;13.40;99.90;;;;;;5090230;28;20218;-49
2022/11/02 09:01:44;;;;;;;8.93;2.50;;;13.30;99.90;;;;;;5090492;28;20169;-49
2022/11/02 09:04:09;;;;;;;10.38;1.95;;;13.40;99.90;;;;;;5090256;28;20216;-50
2022/11/02 09:06:35;;;;;;;12.50;3.28;;;13.40;99.90;;;;;;5090221;28;20165;-49
2022/11/02 09:09:01;;;;;;;10.63;2.13;;;13.40;99.90;;;;;;5090240;28;20181;-49
2022/11/02 09:11:26;;;;;;;7.68;2.78;;;13.40;99.90;;;;;;5090167;28;20172;-49
2022/11/02 09:13:52;;;;;;;11.25;2.25;;;13.30;99.90;;;;;;5090209;28;20693;-50
2022/11/02 09:16:17;;;;;;;7.45;2.03;;;13.30;99.90;;;;;;5090329;28;20200;-49
2022/11/02 09:18:43;;;;;;;15.18;3.78;;;13.50;99.90;;;;;;5090336;28;20215;-49
2022/11/02 09:21:08;;;;;;;5.75;1.67;;;13.40;99.90;;;;;;5090239;28;20531;-49
2022/11/02 09:23:34;;;;;;;6.07;1.85;;;13.40;99.90;;;;;;5090107;28;20180;-50
2022/11/02 09:26:00;;;;;;;5.80;1.77;;;13.40;99.90;;;;;;5090062;28;20170;-49
2022/11/02 09:28:25;;;;;;;8.80;2.13;;;13.30;99.90;;;;;;5089986;28;20542;-50
2022/11/02 09:30:51;;;;;;;5.57;1.80;;;13.50;99.90;;;;;;5089902;28;20170;-50
2022/11/02 09:33:17;;;;;;;7.88;2.15;;;13.60;99.90;;;;;;5090384;28;20223;-52
2022/11/02 09:35:45;;;;;;;10.50;2.28;;;13.70;99.90;;;;;;5090038;28;20162;-53
2022/11/02 09:38:11;;;;;;;9.10;2.30;;;13.60;99.90;;;;;;5093468;28;20240;-52
2022/11/02 09:40:41;;;;;;;10.35;2.30;;;13.80;99.90;;;;;;5093818;28;20256;-53
2022/11/02 09:43:07;;;;;;;6.82;2.05;;;13.70;99.90;;;;;;5075277;28;20228;-53
2022/11/02 09:45:54;;;;;;;9.02;2.10;;;13.80;99.90;;;;;;5093811;28;20173;-53
2022/11/02 09:48:37;;;;;;;6.20;2.05;;;13.90;99.90;;;;;;5092531;28;20653;-50
2022/11/02 09:51:16;;;;;;;8.00;2.17;;;13.90;99.90;;;;;;5093487;28;20161;-51
2022/11/02 09:53:50;;;;;;;10.90;2.33;;;13.80;99.90;;;;;;5093532;28;20165;-50
2022/11/02 09:56:18;;;;;;;10.05;2.28;;;13.80;99.90;;;;;;5093688;28;20200;-51
2022/11/02 09:58:48;;;;;;;7.53;2.03;;;13.90;99.90;;;;;;5093471;28;20173;-52
2022/11/02 10:01:31;;;;;;;10.07;2.38;;;14.10;99.90;;;;;;5093002;28;20218;-51
2022/11/02 10:04:14;;;;;;;10.88;2.53;;;14.10;99.90;;;;;;5093174;28;20867;-52
2022/11/02 10:06:44;;;;;;;9.00;2.78;;;14.10;99.90;;;;;;5092872;28;20169;-53
2022/11/02 10:09:46;;;;;;;5.40;1.92;;;14.20;99.90;;;;;;5093008;28;20187;-52
2022/11/02 10:12:16;;;;;;;8.93;3.45;;;14.30;99.90;;;;;;5099051;28;20187;-52
2022/11/02 10:14:54;;;;;;;10.40;3.17;;;14.40;99.90;;;;;;5101935;28;20190;-53
2022/11/02 10:17:29;;;;;;;6.57;1.92;;;14.40;99.90;;;;;;5092725;28;20201;-52
2022/11/02 10:19:58;;;;;;;7.47;2.08;;;14.40;99.90;;;;;;5074805;28;20169;-52
2022/11/02 10:22:35;;;;;;;7.45;2.15;;;14.50;99.90;;;;;;5092919;28;20227;-52
2022/11/02 10:25:04;;;;;;;5.63;1.70;;;14.50;99.90;;;;;;5091530;28;20172;-54
2022/11/02 10:27:35;;;;;;;6.50;2.25;;;14.60;99.90;;;;;;5092661;28;20180;-53
2022/11/02 10:30:22;;;;;;;13.98;3.28;;;14.70;99.90;;;;;;5092725;28;20192;-53
2022/11/02 10:32:51;;;;;;;6.32;1.98;;;14.60;99.90;;;;;;5093030;28;20592;-53
2022/11/02 10:35:17;;;;;;;14.52;2.88;;;14.80;99.90;;;;;;5092796;28;20599;-52
2022/11/02 10:38:14;;;;;;;15.65;2.50;;;14.70;99.90;;;;;;5092496;28;20289;-52
2022/11/02 10:40:52;;;;;;;9.43;2.40;;;14.90;99.90;;;;;;5092401;28;20192;-51
2022/11/02 10:43:32;;;;;;;4.82;2.15;;;14.90;99.90;;;;;;5093546;28;20173;-52
2022/11/02 10:46:04;;;;;;;8.18;1.95;;;15.00;99.90;;;;;;5112779;28;20157;-52
2022/11/02 10:48:47;;;;;;;6.00;1.73;;;15.00;99.90;;;;;;5111368;28;20251;-53
2022/11/02 10:51:16;;;;;;;8.18;2.10;;;15.00;99.90;;;;;;5112810;28;20176;-54
2022/11/02 10:53:43;;;;;;;8.93;2.00;;;15.00;99.90;;;;;;5112402;28;20184;-54
2022/11/02 10:56:20;;;;;;;13.23;2.30;;;15.20;99.90;;;;;;5112521;28;20164;-53
2022/11/02 10:58:59;;;;;;;4.15;1.50;;;15.20;99.90;;;;;;5112917;28;20168;-53
2022/11/02 11:01:26;;;;;;;7.68;2.20;;;15.20;99.90;;;;;;5112431;28;20504;-53
2022/11/02 11:04:18;;;;;;;10.00;2.35;;;15.40;99.90;;;;;;5112626;28;20267;-53
2022/11/02 11:06:44;;;;;;;6.45;1.65;;;15.30;99.90;;;;;;5112759;28;20192;-53
2022/11/02 11:09:15;;;;;;;8.85;2.10;;;15.20;99.90;;;;;;5112214;28;20215;-53
2022/11/02 11:11:56;;;;;;;9.32;1.85;;;15.20;99.90;;;;;;5112426;28;20188;-53
2022/11/02 11:14:24;;;;;;;8.05;2.10;;;15.40;99.90;;;;;;5112017;28;20640;-54
2022/11/02 11:16:54;;;;;;;7.40;1.95;;;15.50;99.90;;;;;;5112414;28;20208;-53
2022/11/02 11:19:37;;;;;;;5.35;1.42;;;15.40;99.90;;;;;;5112489;28;20184;-52
2022/11/02 11:22:22;;;;;;;8.93;2.42;;;15.40;99.90;;;;;;5093840;28;20173;-52
2022/11/02 11:24:48;;;;;;;10.15;2.67;;;15.40;99.90;;;;;;5111704;28;20173;-53
2022/11/02 11:27:19;;;;;;;10.63;2.20;;;15.60;99.90;;;;;;5112008;28;20169;-53
2022/11/02 11:29:47;;;;;;;11.30;2.40;;;15.50;99.90;;;;;;5112421;28;20164;-53
2022/11/02 11:32:22;;;;;;;14.32;2.92;;;15.50;99.90;;;;;;5112237;28;20164;-53
2022/11/02 11:35:16;;;;;;;10.50;2.28;;;15.50;99.90;;;;;;5111892;28;20196;-51
2022/11/02 11:37:53;;;;;;;7.25;2.03;;;15.40;99.90;;;;;;5108878;28;20223;-53
2022/11/02 11:40:21;;;;;;;8.27;2.17;;;15.30;99.90;;;;;;5111812;28;20196;-54
2022/11/02 11:42:50;;;;;;;6.85;2.08;;;15.20;99.90;;;;;;5112219;28;20180;-54
2022/11/02 11:45:28;;;;;;;8.15;2.30;;;15.00;99.90;;;;;;5111978;28;20191;-53
2022/11/02 11:48:01;;;;;;;7.72;1.70;;;15.30;99.90;;;;;;5109885;28;20228;-54
2022/11/02 11:50:26;;;;;;;8.15;1.85;;;15.50;99.90;;;;;;5109614;28;20647;-52
2022/11/02 11:53:26;;;;;;;7.10;1.90;;;15.40;99.90;;;;;;5109644;28;20466;-53
2022/11/02 11:55:57;;;;;;;9.07;2.28;;;15.50;99.90;;;;;;5110109;28;20550;-52
2022/11/02 11:58:25;;;;;;;7.47;2.17;;;15.60;99.90;;;;;;5109494;28;20188;-51
2022/11/02 12:01:10;;;;;;;12.15;2.40;;;15.70;99.90;;;;;;5091317;28;20291;-51
2022/11/02 12:03:56;;;;;;;10.00;2.10;;;15.80;99.90;;;;;;5111201;28;20224;-53
2022/11/02 12:06:52;;;;;;;8.32;2.08;;;15.90;99.90;;;;;;5093034;28;20172;-51
2022/11/02 12:09:32;;;;;;;9.13;2.33;;;15.90;99.90;;;;;;5111054;28;20164;-51
2022/11/02 12:12:30;;;;;;;10.45;2.22;;;16.00;99.90;;;;;;5111215;28;20172;-52
2022/11/02 12:15:33;;;;;;;5.10;2.03;;;16.00;99.90;;;;;;5038210;28;20183;-52
2022/11/02 12:18:23;;;;;;;8.68;2.03;;;15.80;99.90;;;;;;5111066;28;20208;-52
2022/11/02 12:21:13;;;;;;;8.38;2.28;;;15.70;99.90;;;;;;5111046;28;20164;-52
2022/11/02 12:23:54;;;;;;;11.35;2.55;;;15.60;99.90;;;;;;5110920;28;20683;-53
2022/11/02 12:26:58;;;;;;;3.97;1.92;;;15.70;99.90;;;;;;5110488;28;20178;-52
2022/11/02 12:29:33;;;;;;;5.78;2.10;;;15.70;99.90;;;;;;5110902;28;20191;-51
2022/11/02 12:32:33;;;;;;;12.48;2.08;;;15.70;99.90;;;;;;5110845;28;20170;-52
2022/11/02 12:35:27;;;;;;;8.93;2.33;;;15.80;99.90;;;;;;5092438;28;20259;-51
2022/11/02 12:38:04;;;;;;;6.00;2.00;;;15.90;99.90;;;;;;5110855;28;20208;-52
2022/11/02 12:40:57;;;;;;;7.68;2.10;;;15.80;99.90;;;;;;5110845;28;20624;-52
2022/11/02 12:43:43;;;;;;;6.50;1.90;;;15.70;99.90;;;;;;5110231;28;20173;-51
2022/11/02 12:46:38;;;;;;;10.10;1.80;;;15.70;99.90;;;;;;5092460;28;20180;-52
2022/11/02 12:49:26;;;;;;;6.18;2.10;;;15.80;99.90;;;;;;5110052;28;20165;-50
2022/11/02 12:52:22;;;;;;;6.80;2.22;;;15.80;99.90;;;;;;5110226;28;20169;-51
2022/11/02 12:54:54;;;;;;;13.55;3.28;;;15.80;99.90;;;;;;5110378;28;20567;-51
2022/11/02 12:57:23;;;;;;;11.40;2.15;;;15.80;99.90;;;;;;5110016;28;20571;-52
2022/11/02 12:59:55;;;;;;;8.75;2.10;;;15.80;99.90;;;;;;5110385;28;20239;-50
2022/11/02 13:02:36;;;;;;;6.25;2.10;;;15.80;99.90;;;;;;5109953;28;20216;-51
2022/11/02 13:05:32;;;;;;;11.38;2.72;;;15.80;99.90;;;;;;5110233;28;20689;-50
2022/11/02 13:08:18;;;;;;;12.25;2.70;;;15.70;99.90;;;;;;5109188;28;20237;-52
2022/11/02 13:10:47;;;;;;;8.55;2.60;;;15.80;99.90;;;;;;5110755;28;20258;-50
2022/11/02 13:13:28;;;;;;;9.25;2.20;;;15.80;99.90;;;;;;5114102;28;20172;-51
2022/11/02 13:15:55;;;;;;;7.13;2.15;;;15.90;99.90;;;;;;5113916;28;20214;-48
2022/11/02 13:18:29;;;;;;;8.05;2.00;;;15.80;99.90;;;;;;5095934;28;20208;-49